Time;durP1;ratioP1;P1;durP2;ratioP2;P2;SDS_P1;SDS_P2;PMS_P1;PMS_P2;Temp;Humidity;BMP_temperature;BMP_pressure;BME280_temperature;BME280_humidity;BME280_pressure;Samples;Min_cycle;Max_cycle;Signal;HPM_P1;HPM_P2
2022/10/17 00:01:47;;;;;;;11.95;6.43;;;;;;;;;;5014173;28;20236;-64
2022/10/17 00:04:12;;;;;;;12.20;6.88;;;;;;;;;;5014067;28;20221;-64
2022/10/17 00:06:38;;;;;;;16.33;6.43;;;;;;;;;;5014308;28;20219;-64
2022/10/17 00:09:03;;;;;;;12.40;5.50;;;;;;;;;;5013558;28;20216;-64
2022/10/17 00:11:29;;;;;;;11.80;6.03;;;;;;;;;;5013462;28;20226;-64
2022/10/17 00:13:54;;;;;;;12.30;6.38;;;;;;;;;;5014384;28;20232;-64
2022/10/17 00:16:26;;;;;;;11.82;5.97;;;;;;;;;;5012251;28;20216;-64
2022/10/17 00:18:52;;;;;;;16.88;6.22;;;;;;;;;;5013992;28;20722;-64
2022/10/17 00:21:17;;;;;;;13.68;5.95;;;;;;;;;;5013867;28;20216;-64
2022/10/17 00:23:43;;;;;;;12.02;6.65;;;;;;;;;;5013575;28;20240;-64
2022/10/17 00:26:08;;;;;;;12.88;5.97;;;;;;;;;;5013701;28;20256;-64
2022/10/17 00:28:33;;;;;;;16.45;6.47;;;;;;;;;;5013040;28;20220;-64
2022/10/17 00:30:59;;;;;;;17.90;5.97;;;;;;;;;;5013744;28;20219;-64
2022/10/17 00:33:25;;;;;;;13.18;6.47;;;;;;;;;;5013225;28;20216;-64
2022/10/17 00:35:50;;;;;;;20.77;7.03;;;;;;;;;;5013017;28;20225;-64
2022/10/17 00:38:15;;;;;;;16.60;7.18;;;;;;;;;;5013047;28;20216;-64
2022/10/17 00:40:41;;;;;;;15.07;7.28;;;;;;;;;;5013654;28;20213;-64
2022/10/17 00:43:13;;;;;;;13.27;7.20;;;;;;;;;;5013356;28;20247;-64
2022/10/17 00:45:39;;;;;;;15.18;7.75;;;;;;;;;;5012305;28;20691;-64
2022/10/17 00:48:04;;;;;;;18.42;8.02;;;;;;;;;;5013080;28;20244;-64
2022/10/17 00:50:29;;;;;;;12.13;8.02;;;;;;;;;;5013835;28;20220;-64
2022/10/17 00:52:55;;;;;;;13.85;7.32;;;;;;;;;;5015788;28;20222;-64
2022/10/17 00:55:22;;;;;;;15.80;7.25;;;;;;;;;;4984312;28;20227;-65
2022/10/17 00:57:48;;;;;;;16.20;7.97;;;;;;;;;;4989630;28;20223;-65
2022/10/17 01:00:13;;;;;;;16.73;7.55;;;;;;;;;;4988854;28;20212;-65
2022/10/17 01:02:39;;;;;;;12.18;7.85;;;;;;;;;;4996086;28;20275;-65
2022/10/17 01:05:05;;;;;;;13.93;7.85;;;;;;;;;;4996629;28;20473;-64
2022/10/17 01:07:30;;;;;;;14.73;8.50;;;;;;;;;;5012478;28;20517;-64
2022/10/17 01:09:55;;;;;;;16.60;8.40;;;;;;;;;;4997496;28;20215;-64
2022/10/17 01:12:33;;;;;;;12.30;7.47;;;;;;;;;;4995997;28;20762;-65
2022/10/17 01:15:22;;;;;;;19.10;10.00;;;;;;;;;;4996677;28;20232;-65
2022/10/17 01:17:58;;;;;;;20.20;8.43;;;;;;;;;;5005982;28;20572;-65
2022/10/17 01:20:42;;;;;;;16.15;9.40;;;;;;;;;;4987609;28;20606;-64
2022/10/17 01:23:23;;;;;;;18.98;8.15;;;;;;;;;;4988621;28;20208;-65
2022/10/17 01:26:02;;;;;;;17.60;9.20;;;;;;;;;;4995399;28;20750;-65
2022/10/17 01:28:36;;;;;;;16.67;9.07;;;;;;;;;;4996600;28;20212;-65
2022/10/17 01:31:08;;;;;;;14.15;9.55;;;;;;;;;;4996864;28;20574;-64
2022/10/17 01:33:37;;;;;;;21.40;11.00;;;;;;;;;;4995439;28;20228;-65
2022/10/17 01:36:11;;;;;;;16.95;9.75;;;;;;;;;;4995131;28;20221;-64
2022/10/17 01:38:39;;;;;;;21.40;11.18;;;;;;;;;;4994412;28;20219;-64
2022/10/17 01:41:04;;;;;;;20.27;10.07;;;;;;;;;;4988525;28;20629;-64
2022/10/17 01:43:33;;;;;;;19.65;10.70;;;;;;;;;;4989993;28;20208;-65
2022/10/17 01:45:59;;;;;;;17.45;10.43;;;;;;;;;;4991229;28;20212;-64
2022/10/17 01:48:25;;;;;;;21.85;10.85;;;;;;;;;;4996152;28;20212;-65
2022/10/17 01:50:51;;;;;;;13.13;8.43;;;;;;;;;;4996734;28;20593;-65
2022/10/17 01:53:18;;;;;;;20.65;9.52;;;;;;;;;;4994275;28;20611;-64
2022/10/17 01:55:44;;;;;;;17.55;9.25;;;;;;;;;;4997574;28;20204;-64
2022/10/17 01:58:16;;;;;;;12.52;8.73;;;;;;;;;;5003649;28;20220;-64
2022/10/17 02:00:41;;;;;;;16.27;9.98;;;;;;;;;;5005541;28;20690;-64
2022/10/17 02:03:08;;;;;;;18.42;9.27;;;;;;;;;;5004297;28;20229;-64
2022/10/17 02:05:35;;;;;;;18.95;9.18;;;;;;;;;;5005455;28;20208;-64
2022/10/17 02:08:01;;;;;;;17.48;9.43;;;;;;;;;;5005171;28;20239;-64
2022/10/17 02:10:30;;;;;;;18.45;9.10;;;;;;;;;;5006609;28;20654;-65
2022/10/17 02:13:14;;;;;;;16.40;7.95;;;;;;;;;;5006583;28;20379;-64
2022/10/17 02:15:39;;;;;;;15.07;8.35;;;;;;;;;;5005953;28;20220;-64
2022/10/17 02:18:23;;;;;;;13.23;8.93;;;;;;;;;;5007034;28;20271;-64
2022/10/17 02:20:55;;;;;;;14.23;7.90;;;;;;;;;;5007019;28;20212;-65
2022/10/17 02:23:24;;;;;;;16.10;9.13;;;;;;;;;;5005891;28;20216;-64
2022/10/17 02:25:49;;;;;;;15.40;9.27;;;;;;;;;;5006085;28;20303;-64
2022/10/17 02:28:22;;;;;;;20.58;8.35;;;;;;;;;;5005995;28;20295;-64
2022/10/17 02:30:51;;;;;;;19.52;9.88;;;;;;;;;;5004962;28;20551;-64
2022/10/17 02:33:19;;;;;;;18.45;10.00;;;;;;;;;;4995960;28;20219;-64
2022/10/17 02:35:46;;;;;;;19.40;10.63;;;;;;;;;;4996807;28;20262;-64
2022/10/17 02:38:11;;;;;;;17.35;9.48;;;;;;;;;;4995235;28;20332;-65
2022/10/17 02:40:36;;;;;;;13.68;8.80;;;;;;;;;;4993170;28;20632;-64
2022/10/17 02:43:01;;;;;;;13.68;8.60;;;;;;;;;;4992672;28;20227;-64
2022/10/17 02:45:27;;;;;;;14.77;8.63;;;;;;;;;;4995950;28;20791;-64
2022/10/17 02:47:53;;;;;;;12.80;9.40;;;;;;;;;;4998557;28;20298;-64
2022/10/17 02:50:19;;;;;;;16.13;8.82;;;;;;;;;;4999444;28;20228;-64
2022/10/17 02:52:47;;;;;;;19.13;10.77;;;;;;;;;;4998901;28;20204;-65
2022/10/17 02:55:19;;;;;;;16.23;9.35;;;;;;;;;;4999391;28;20573;-64
2022/10/17 02:57:47;;;;;;;12.65;8.18;;;;;;;;;;5003897;28;20235;-64
2022/10/17 03:00:13;;;;;;;13.05;7.88;;;;;;;;;;5002492;28;20226;-64
2022/10/17 03:02:40;;;;;;;13.75;8.05;;;;;;;;;;4992820;28;20680;-65
2022/10/17 03:05:05;;;;;;;14.43;8.63;;;;;;;;;;4991509;28;20233;-64
2022/10/17 03:07:31;;;;;;;11.95;8.18;;;;;;;;;;4994013;28;20776;-64
2022/10/17 03:09:56;;;;;;;15.57;8.68;;;;;;;;;;5001025;28;20220;-64
2022/10/17 03:12:21;;;;;;;13.00;8.38;;;;;;;;;;4999783;28;20208;-65
2022/10/17 03:14:46;;;;;;;13.27;8.13;;;;;;;;;;4999949;28;20220;-65
2022/10/17 03:17:13;;;;;;;12.73;8.70;;;;;;;;;;4998754;28;20310;-65
2022/10/17 03:19:38;;;;;;;13.32;8.07;;;;;;;;;;4999748;28;20211;-65
2022/10/17 03:22:03;;;;;;;11.90;8.45;;;;;;;;;;4998868;28;20505;-64
2022/10/17 03:24:28;;;;;;;14.88;9.20;;;;;;;;;;4994964;28;20582;-65
2022/10/17 03:26:54;;;;;;;11.40;7.88;;;;;;;;;;4991964;28;20739;-65
2022/10/17 03:29:19;;;;;;;18.70;9.90;;;;;;;;;;4992737;28;20235;-65
2022/10/17 03:31:44;;;;;;;17.48;11.23;;;;;;;;;;4997657;28;20205;-65
2022/10/17 03:34:11;;;;;;;11.38;8.35;;;;;;;;;;5007715;28;20264;-64
2022/10/17 03:36:36;;;;;;;14.85;9.77;;;;;;;;;;5010201;28;20727;-65
2022/10/17 03:39:01;;;;;;;15.10;8.90;;;;;;;;;;5010653;28;20243;-64
2022/10/17 03:41:26;;;;;;;14.50;8.90;;;;;;;;;;5010362;28;20316;-64
2022/10/17 03:43:53;;;;;;;15.95;9.27;;;;;;;;;;5010364;28;20270;-64
2022/10/17 03:46:18;;;;;;;16.35;9.48;;;;;;;;;;5008584;28;20251;-64
2022/10/17 03:48:43;;;;;;;12.05;8.93;;;;;;;;;;5009879;28;20602;-64
2022/10/17 03:51:08;;;;;;;13.55;9.15;;;;;;;;;;5009547;28;20267;-64
2022/10/17 03:53:34;;;;;;;15.07;8.93;;;;;;;;;;5008596;28;20231;-64
2022/10/17 03:56:09;;;;;;;13.57;9.75;;;;;;;;;;5009825;28;20222;-64
2022/10/17 03:58:35;;;;;;;14.00;8.88;;;;;;;;;;5009544;28;20274;-64
2022/10/17 04:01:06;;;;;;;17.67;10.13;;;;;;;;;;5009284;28;20899;-64
2022/10/17 04:03:32;;;;;;;13.88;8.95;;;;;;;;;;5008838;28;20581;-64
2022/10/17 04:05:58;;;;;;;15.00;8.55;;;;;;;;;;5009531;28;20212;-64
2022/10/17 04:08:23;;;;;;;15.70;9.15;;;;;;;;;;5008717;28;20263;-64
2022/10/17 04:10:49;;;;;;;13.63;9.25;;;;;;;;;;5009461;28;20620;-65
2022/10/17 04:13:14;;;;;;;17.30;9.10;;;;;;;;;;5009015;28;20215;-64
2022/10/17 04:15:39;;;;;;;14.38;9.68;;;;;;;;;;5008607;28;20300;-64
2022/10/17 04:18:04;;;;;;;15.35;9.50;;;;;;;;;;5008414;28;20209;-64
2022/10/17 04:20:30;;;;;;;19.85;11.65;;;;;;;;;;5009463;28;20232;-65
2022/10/17 04:22:55;;;;;;;18.27;9.90;;;;;;;;;;5009006;28;20216;-64
2022/10/17 04:25:20;;;;;;;14.00;9.05;;;;;;;;;;5008622;28;20315;-64
2022/10/17 04:27:47;;;;;;;12.82;9.23;;;;;;;;;;5008723;28;20426;-64
2022/10/17 04:30:13;;;;;;;16.13;10.27;;;;;;;;;;5008438;28;20232;-64
2022/10/17 04:32:38;;;;;;;16.75;9.32;;;;;;;;;;5003476;28;20950;-65
2022/10/17 04:35:03;;;;;;;15.35;9.40;;;;;;;;;;4997035;28;20331;-64
2022/10/17 04:37:29;;;;;;;14.77;9.07;;;;;;;;;;4998037;28;20208;-64
2022/10/17 04:39:54;;;;;;;12.57;9.48;;;;;;;;;;4997974;28;20217;-64
2022/10/17 04:42:20;;;;;;;14.05;9.95;;;;;;;;;;4996950;28;20629;-67
2022/10/17 04:44:45;;;;;;;14.32;9.60;;;;;;;;;;4997844;28;20310;-67
2022/10/17 04:47:10;;;;;;;13.45;8.43;;;;;;;;;;4991505;28;20282;-67
2022/10/17 04:49:35;;;;;;;11.05;7.82;;;;;;;;;;4990883;28;20233;-67
2022/10/17 04:52:00;;;;;;;12.15;8.43;;;;;;;;;;4989729;28;20577;-66
2022/10/17 04:54:26;;;;;;;15.30;9.80;;;;;;;;;;4996054;28;20228;-67
2022/10/17 04:56:51;;;;;;;14.05;9.57;;;;;;;;;;4997279;28;20239;-67
2022/10/17 04:59:16;;;;;;;12.95;8.68;;;;;;;;;;4996850;28;20328;-67
2022/10/17 05:01:42;;;;;;;13.88;9.43;;;;;;;;;;4996710;28;20241;-67
2022/10/17 05:04:07;;;;;;;12.90;8.50;;;;;;;;;;5002613;28;20251;-67
2022/10/17 05:06:33;;;;;;;15.68;10.25;;;;;;;;;;5003329;28;20212;-67
2022/10/17 05:08:58;;;;;;;15.23;9.55;;;;;;;;;;5000244;28;20356;-67
2022/10/17 05:11:24;;;;;;;14.50;9.32;;;;;;;;;;4988275;28;20222;-67
2022/10/17 05:13:50;;;;;;;14.52;9.60;;;;;;;;;;4990882;28;20216;-67
2022/10/17 05:16:16;;;;;;;14.70;9.32;;;;;;;;;;4994679;28;20852;-66
2022/10/17 05:18:41;;;;;;;14.52;9.73;;;;;;;;;;4997913;28;20481;-67
2022/10/17 05:21:06;;;;;;;16.17;10.02;;;;;;;;;;4997506;28;20218;-66
2022/10/17 05:23:32;;;;;;;12.98;8.93;;;;;;;;;;4997792;28;20232;-66
2022/10/17 05:25:57;;;;;;;13.60;8.90;;;;;;;;;;4997094;28;20213;-67
2022/10/17 05:28:22;;;;;;;13.52;9.68;;;;;;;;;;4996495;28;20513;-67
2022/10/17 05:30:48;;;;;;;14.40;9.07;;;;;;;;;;4996458;28;20235;-66
2022/10/17 05:33:13;;;;;;;14.10;8.95;;;;;;;;;;4989882;28;20218;-66
2022/10/17 05:35:38;;;;;;;13.52;9.23;;;;;;;;;;4992008;28;20223;-66
2022/10/17 05:38:04;;;;;;;13.23;8.18;;;;;;;;;;5005806;28;20212;-65
2022/10/17 05:40:29;;;;;;;14.73;10.60;;;;;;;;;;5007612;28;20918;-64
2022/10/17 05:42:54;;;;;;;13.55;9.75;;;;;;;;;;5017309;28;20254;-64
2022/10/17 05:45:20;;;;;;;15.27;10.85;;;;;;;;;;5026349;28;20514;-63
2022/10/17 05:47:45;;;;;;;15.95;9.23;;;;;;;;;;5011730;28;20235;-63
2022/10/17 05:50:10;;;;;;;14.32;8.80;;;;;;;;;;5008893;28;20209;-63
2022/10/17 05:52:36;;;;;;;17.52;9.55;;;;;;;;;;5009436;28;20344;-63
2022/10/17 05:55:01;;;;;;;15.77;8.88;;;;;;;;;;5007026;28;20228;-63
2022/10/17 05:57:26;;;;;;;13.30;8.20;;;;;;;;;;5009812;28;20295;-63
2022/10/17 05:59:52;;;;;;;12.15;9.07;;;;;;;;;;5009446;28;20212;-63
2022/10/17 06:02:17;;;;;;;13.23;8.70;;;;;;;;;;5008043;28;20221;-63
2022/10/17 06:04:44;;;;;;;11.23;8.40;;;;;;;;;;5009999;28;20216;-63
2022/10/17 06:07:11;;;;;;;17.15;9.35;;;;;;;;;;5008325;28;20207;-63
2022/10/17 06:09:36;;;;;;;18.50;11.05;;;;;;;;;;5007857;28;20212;-63
2022/10/17 06:12:01;;;;;;;12.45;8.77;;;;;;;;;;5008406;28;20208;-63
2022/10/17 06:14:26;;;;;;;12.65;8.88;;;;;;;;;;5009020;28;20617;-63
2022/10/17 06:16:52;;;;;;;13.57;8.65;;;;;;;;;;5011118;28;20204;-63
2022/10/17 06:19:17;;;;;;;17.83;8.82;;;;;;;;;;5009348;28;20587;-63
2022/10/17 06:21:42;;;;;;;15.50;8.35;;;;;;;;;;5009703;28;20497;-62
2022/10/17 06:24:08;;;;;;;12.63;7.57;;;;;;;;;;5023901;28;20220;-61
2022/10/17 06:26:33;;;;;;;16.85;8.90;;;;;;;;;;5024876;28;20235;-61
2022/10/17 06:28:58;;;;;;;16.60;9.00;;;;;;;;;;5006687;28;20640;-61
2022/10/17 06:31:23;;;;;;;10.20;6.95;;;;;;;;;;5006178;28;20648;-62
2022/10/17 06:33:49;;;;;;;11.05;8.10;;;;;;;;;;5007096;28;20314;-62
2022/10/17 06:36:14;;;;;;;15.88;9.05;;;;;;;;;;5005865;28;20618;-62
2022/10/17 06:38:39;;;;;;;13.23;8.23;;;;;;;;;;5005398;28;20263;-61
2022/10/17 06:41:07;;;;;;;15.68;7.93;;;;;;;;;;5005136;28;20200;-64
2022/10/17 06:43:32;;;;;;;10.32;7.10;;;;;;;;;;5006188;28;20216;-64
2022/10/17 06:45:58;;;;;;;13.18;8.25;;;;;;;;;;5005932;28;20211;-64
2022/10/17 06:48:23;;;;;;;12.38;7.70;;;;;;;;;;5006810;28;20836;-64
2022/10/17 06:50:48;;;;;;;18.92;8.50;;;;;;;;;;5009848;28;20251;-64
2022/10/17 06:53:13;;;;;;;12.65;8.52;;;;;;;;;;5006115;28;20312;-64
2022/10/17 06:55:39;;;;;;;13.73;9.35;;;;;;;;;;5006232;28;20217;-63
2022/10/17 06:58:04;;;;;;;14.88;8.85;;;;;;;;;;5003996;28;20315;-63
2022/10/17 07:00:29;;;;;;;15.43;9.15;;;;;;;;;;5005645;28;20589;-63
2022/10/17 07:02:55;;;;;;;16.92;9.07;;;;;;;;;;5006320;28;20224;-63
2022/10/17 07:05:20;;;;;;;12.52;8.63;;;;;;;;;;5009653;28;20273;-63
2022/10/17 07:07:45;;;;;;;13.98;9.30;;;;;;;;;;5004977;28;20697;-63
2022/10/17 07:10:11;;;;;;;17.55;9.00;;;;;;;;;;5006181;28;20240;-63
2022/10/17 07:12:36;;;;;;;13.30;9.20;;;;;;;;;;5005808;28;20922;-63
2022/10/17 07:15:03;;;;;;;13.25;8.82;;;;;;;;;;5012565;28;20216;-63
2022/10/17 07:17:28;;;;;;;16.45;9.23;;;;;;;;;;5023243;28;20227;-63
2022/10/17 07:19:53;;;;;;;10.38;8.48;;;;;;;;;;5008277;28;20243;-63
2022/10/17 07:22:19;;;;;;;11.07;8.10;;;;;;;;;;5008297;28;20212;-63
2022/10/17 07:24:44;;;;;;;13.32;8.40;;;;;;;;;;5011035;28;20216;-63
2022/10/17 07:27:09;;;;;;;13.38;8.35;;;;;;;;;;5014752;28;20216;-64
2022/10/17 07:29:35;;;;;;;12.65;8.25;;;;;;;;;;5009637;28;20296;-64
2022/10/17 07:32:02;;;;;;;10.90;8.25;;;;;;;;;;5009242;28;20220;-63
2022/10/17 07:34:30;;;;;;;15.45;8.63;;;;;;;;;;5009094;28;20228;-63
2022/10/17 07:36:55;;;;;;;10.40;8.50;;;;;;;;;;5009277;28;20208;-63
2022/10/17 07:39:20;;;;;;;14.63;8.43;;;;;;;;;;5008562;28;20220;-63
2022/10/17 07:41:47;;;;;;;15.45;8.52;;;;;;;;;;5008147;28;20223;-63
2022/10/17 07:44:14;;;;;;;17.58;8.75;;;;;;;;;;5007694;28;20752;-63
2022/10/17 07:46:39;;;;;;;10.68;7.60;;;;;;;;;;5007413;28;20212;-63
2022/10/17 07:49:04;;;;;;;10.75;7.90;;;;;;;;;;5008157;28;20299;-63
2022/10/17 07:51:29;;;;;;;11.32;8.40;;;;;;;;;;5009325;28;20212;-63
2022/10/17 07:53:55;;;;;;;13.02;8.20;;;;;;;;;;5008119;28;20232;-63
2022/10/17 07:56:23;;;;;;;12.30;7.90;;;;;;;;;;5008257;28;20697;-63
2022/10/17 07:58:48;;;;;;;10.70;7.53;;;;;;;;;;5007737;28;20220;-63
2022/10/17 08:01:14;;;;;;;10.38;8.18;;;;;;;;;;5012250;28;20235;-63
2022/10/17 08:03:40;;;;;;;11.93;7.30;;;;;;;;;;5022312;28;20306;-63
2022/10/17 08:06:05;;;;;;;11.20;8.40;;;;;;;;;;5018050;28;20436;-62
2022/10/17 08:08:31;;;;;;;13.10;7.90;;;;;;;;;;5019724;28;20316;-62
2022/10/17 08:11:00;;;;;;;9.77;7.63;;;;;;;;;;5027373;28;20879;-64
2022/10/17 08:13:25;;;;;;;11.57;7.55;;;;;;;;;;5026889;28;20216;-64
2022/10/17 08:15:50;;;;;;;9.70;7.32;;;;;;;;;;5013392;28;20274;-64
2022/10/17 08:18:16;;;;;;;10.63;7.43;;;;;;;;;;5007278;28;20212;-64
2022/10/17 08:20:41;;;;;;;12.20;7.78;;;;;;;;;;5007199;28;20279;-63
2022/10/17 08:23:07;;;;;;;11.10;7.72;;;;;;;;;;5006935;28;20213;-65
2022/10/17 08:25:32;;;;;;;13.80;7.45;;;;;;;;;;5007323;28;20266;-65
2022/10/17 08:27:57;;;;;;;16.83;7.68;;;;;;;;;;5005616;28;20692;-65
2022/10/17 08:30:23;;;;;;;16.02;7.28;;;;;;;;;;5006605;28;20838;-66
2022/10/17 08:32:48;;;;;;;14.50;8.10;;;;;;;;;;5005531;28;20212;-66
2022/10/17 08:35:13;;;;;;;10.45;7.00;;;;;;;;;;5007029;28;20228;-66
2022/10/17 08:37:39;;;;;;;11.52;7.22;;;;;;;;;;5005990;28;20224;-65
2022/10/17 08:40:04;;;;;;;14.18;7.65;;;;;;;;;;5006458;28;20212;-67
2022/10/17 08:42:34;;;;;;;11.30;7.35;;;;;;;;;;5006665;28;20204;-68
2022/10/17 08:45:04;;;;;;;15.95;8.15;;;;;;;;;;5005068;28;20224;-67
2022/10/17 08:47:33;;;;;;;13.63;8.05;;;;;;;;;;5004385;28;20207;-66
2022/10/17 08:50:00;;;;;;;12.40;8.10;;;;;;;;;;5006527;28;20929;-66
2022/10/17 08:52:37;;;;;;;16.27;8.32;;;;;;;;;;5005041;28;20278;-67
2022/10/17 08:55:03;;;;;;;11.73;7.88;;;;;;;;;;5006166;28;20322;-66
2022/10/17 08:57:28;;;;;;;18.02;8.57;;;;;;;;;;5006826;28;20836;-68
2022/10/17 08:59:53;;;;;;;14.57;8.50;;;;;;;;;;5007070;28;20216;-66
2022/10/17 09:02:34;;;;;;;12.95;7.90;;;;;;;;;;5006558;28;20233;-65
2022/10/17 09:05:00;;;;;;;16.52;8.80;;;;;;;;;;5006155;28;20242;-69
2022/10/17 09:07:31;;;;;;;18.25;8.77;;;;;;;;;;5005164;28;20219;-67
2022/10/17 09:10:01;;;;;;;23.05;10.23;;;;;;;;;;5005343;28;20208;-66
2022/10/17 09:12:32;;;;;;;13.88;8.15;;;;;;;;;;5004659;28;20601;-67
2022/10/17 09:14:58;;;;;;;15.88;8.77;;;;;;;;;;5006446;28;20635;-66
2022/10/17 09:17:23;;;;;;;17.08;9.30;;;;;;;;;;5005328;28;20212;-65
2022/10/17 09:20:08;;;;;;;13.93;9.27;;;;;;;;;;5005941;28;20227;-65
2022/10/17 09:22:37;;;;;;;13.48;8.13;;;;;;;;;;5005764;28;20680;-65
2022/10/17 09:25:05;;;;;;;11.88;8.40;;;;;;;;;;5005030;28;20307;-65
2022/10/17 09:27:39;;;;;;;12.40;8.27;;;;;;;;;;5006782;28;20224;-65
2022/10/17 09:30:14;;;;;;;11.15;8.15;;;;;;;;;;5006296;28;20204;-65
2022/10/17 09:32:41;;;;;;;14.77;8.63;;;;;;;;;;5006140;28;20215;-65
2022/10/17 09:35:10;;;;;;;13.48;7.65;;;;;;;;;;5020948;28;20677;-65
2022/10/17 09:37:35;;;;;;;12.70;7.60;;;;;;;;;;5003659;28;20835;-65
2022/10/17 09:40:00;;;;;;;14.30;9.02;;;;;;;;;;5003453;28;20216;-66
2022/10/17 09:42:26;;;;;;;14.25;8.50;;;;;;;;;;5006463;28;20224;-66
2022/10/17 09:44:52;;;;;;;15.00;8.40;;;;;;;;;;5006009;28;20216;-65
2022/10/17 09:47:20;;;;;;;14.60;8.18;;;;;;;;;;5005141;28;20347;-66
2022/10/17 09:49:45;;;;;;;11.85;7.57;;;;;;;;;;5004629;28;20208;-67
2022/10/17 09:52:14;;;;;;;14.18;7.78;;;;;;;;;;5008041;28;20216;-67
2022/10/17 09:54:39;;;;;;;11.93;8.18;;;;;;;;;;5004199;28;20786;-66
2022/10/17 09:57:05;;;;;;;13.60;7.40;;;;;;;;;;5004296;28;20219;-66
2022/10/17 09:59:32;;;;;;;14.45;7.82;;;;;;;;;;5005345;28;20208;-67
2022/10/17 10:02:09;;;;;;;14.68;7.45;;;;;;;;;;5005482;28;20230;-66
2022/10/17 10:04:34;;;;;;;12.00;7.53;;;;;;;;;;5004293;28;20204;-65
2022/10/17 10:07:00;;;;;;;9.90;6.75;;;;;;;;;;5003728;28;20215;-65
2022/10/17 10:09:26;;;;;;;8.57;6.25;;;;;;;;;;5014186;28;20207;-65
2022/10/17 10:11:53;;;;;;;9.90;6.53;;;;;;;;;;5025654;28;20224;-65
2022/10/17 10:14:20;;;;;;;10.30;6.95;;;;;;;;;;5018631;28;20238;-65
2022/10/17 10:16:46;;;;;;;10.75;7.22;;;;;;;;;;5005469;28;20208;-64
2022/10/17 10:19:27;;;;;;;8.82;6.45;;;;;;;;;;5005875;28;20295;-64
2022/10/17 10:21:54;;;;;;;9.73;6.22;;;;;;;;;;5008992;28;20208;-62
2022/10/17 10:24:19;;;;;;;18.30;15.00;;;;;;;;;;5012964;28;20671;-62
2022/10/17 10:26:45;;;;;;;12.00;8.80;;;;;;;;;;5003136;28;20228;-62
2022/10/17 10:29:19;;;;;;;13.15;7.03;;;;;;;;;;5004829;28;20291;-62
2022/10/17 10:31:44;;;;;;;13.48;9.65;;;;;;;;;;5004785;28;20212;-64
2022/10/17 10:34:18;;;;;;;10.00;6.55;;;;;;;;;;5005131;28;20232;-64
2022/10/17 10:36:44;;;;;;;10.82;6.60;;;;;;;;;;5005238;28;20292;-63
2022/10/17 10:39:14;;;;;;;8.80;5.88;;;;;;;;;;5004035;28;20211;-63
2022/10/17 10:41:46;;;;;;;9.13;6.18;;;;;;;;;;5002642;28;20611;-62
2022/10/17 10:44:12;;;;;;;9.20;5.88;;;;;;;;;;5004433;28;20603;-62
2022/10/17 10:46:38;;;;;;;7.70;6.25;;;;;;;;;;5006432;28;20209;-62
2022/10/17 10:49:03;;;;;;;9.48;6.00;;;;;;;;;;5004240;28;20604;-62
2022/10/17 10:51:34;;;;;;;10.38;6.10;;;;;;;;;;5003739;28;20212;-62
2022/10/17 10:53:59;;;;;;;6.85;4.90;;;;;;;;;;5003616;28;20318;-62
2022/10/17 10:56:25;;;;;;;6.78;4.63;;;;;;;;;;5005733;28;20668;-62
2022/10/17 10:58:53;;;;;;;7.13;4.70;;;;;;;;;;5004791;28;20221;-62
2022/10/17 11:01:28;;;;;;;7.68;4.95;;;;;;;;;;5007348;28;20208;-62
2022/10/17 11:04:00;;;;;;;6.00;4.30;;;;;;;;;;5009221;28;20242;-62
2022/10/17 11:06:26;;;;;;;6.18;4.30;;;;;;;;;;5009384;28;20886;-61
2022/10/17 11:09:05;;;;;;;8.80;4.53;;;;;;;;;;5007435;28;20251;-61
2022/10/17 11:11:32;;;;;;;5.75;4.15;;;;;;;;;;5003710;28;20204;-61
2022/10/17 11:13:59;;;;;;;7.47;4.40;;;;;;;;;;5016804;28;20216;-62
2022/10/17 11:16:30;;;;;;;7.32;4.30;;;;;;;;;;5009454;28;20208;-62
2022/10/17 11:19:03;;;;;;;7.30;4.80;;;;;;;;;;5019352;28;20220;-62
2022/10/17 11:21:35;;;;;;;8.52;4.30;;;;;;;;;;5019831;28;20292;-62
2022/10/17 11:24:02;;;;;;;8.32;4.93;;;;;;;;;;5021911;28;20248;-63
2022/10/17 11:26:28;;;;;;;10.65;6.47;;;;;;;;;;5026310;28;20675;-62
2022/10/17 11:28:53;;;;;;;8.68;5.60;;;;;;;;;;5026950;28;20261;-63
2022/10/17 11:31:19;;;;;;;7.80;4.93;;;;;;;;;;5019900;28;20421;-63
2022/10/17 11:33:46;;;;;;;9.48;5.90;;;;;;;;;;5020342;28;20719;-63
2022/10/17 11:36:11;;;;;;;10.00;5.72;;;;;;;;;;5025363;28;20261;-63
2022/10/17 11:38:46;;;;;;;8.73;5.68;;;;;;;;;;5023582;28;20216;-63
2022/10/17 11:41:13;;;;;;;12.85;8.60;;;;;;;;;;5025681;28;20211;-63
2022/10/17 11:43:41;;;;;;;9.88;6.50;;;;;;;;;;5026641;28;20231;-63
2022/10/17 11:46:14;;;;;;;12.07;6.50;;;;;;;;;;5023352;28;20299;-63
2022/10/17 11:48:41;;;;;;;11.55;7.45;;;;;;;;;;5006319;28;20295;-63
2022/10/17 11:51:07;;;;;;;9.60;6.25;;;;;;;;;;5007202;28;20247;-63
2022/10/17 11:53:43;;;;;;;7.38;6.20;;;;;;;;;;5007067;28;20212;-63
2022/10/17 11:56:08;;;;;;;10.40;6.30;;;;;;;;;;5007298;28;20228;-63
2022/10/17 11:58:39;;;;;;;9.50;6.28;;;;;;;;;;5006346;28;20617;-63
2022/10/17 12:01:14;;;;;;;10.73;7.50;;;;;;;;;;5006569;28;20263;-63
2022/10/17 12:03:40;;;;;;;8.48;6.25;;;;;;;;;;4999011;28;20323;-63
2022/10/17 12:06:08;;;;;;;8.82;7.25;;;;;;;;;;5006928;28;20687;-63
2022/10/17 12:08:40;;;;;;;10.57;7.60;;;;;;;;;;5006726;28;20250;-62
2022/10/17 12:11:27;;;;;;;9.68;6.78;;;;;;;;;;5006110;28;20209;-63
2022/10/17 12:13:53;;;;;;;9.00;6.68;;;;;;;;;;5007106;28;20696;-63
2022/10/17 12:16:18;;;;;;;12.60;6.22;;;;;;;;;;5005983;28;20363;-63
2022/10/17 12:18:45;;;;;;;11.15;6.90;;;;;;;;;;5007703;28;20299;-63
2022/10/17 12:21:10;;;;;;;8.85;6.88;;;;;;;;;;5004998;28;20215;-63
2022/10/17 12:23:37;;;;;;;9.90;6.60;;;;;;;;;;5005946;28;20217;-63
2022/10/17 12:26:03;;;;;;;8.50;6.18;;;;;;;;;;5006861;28;20308;-63
2022/10/17 12:28:32;;;;;;;10.95;6.68;;;;;;;;;;5005132;28;20204;-63
2022/10/17 12:30:58;;;;;;;10.57;7.22;;;;;;;;;;5006838;28;20216;-63
2022/10/17 12:33:30;;;;;;;14.68;7.20;;;;;;;;;;5006609;28;20216;-63
2022/10/17 12:36:29;;;;;;;10.20;6.63;;;;;;;;;;5006053;28;20395;-63
2022/10/17 12:39:00;;;;;;;12.05;7.20;;;;;;;;;;5006077;28;20296;-63
2022/10/17 12:41:38;;;;;;;10.65;7.00;;;;;;;;;;5006190;28;20427;-63
2022/10/17 12:44:12;;;;;;;12.07;7.47;;;;;;;;;;5006564;28;20219;-63
2022/10/17 12:46:48;;;;;;;11.45;6.90;;;;;;;;;;5006967;28;20215;-63
2022/10/17 12:49:32;;;;;;;16.65;9.43;;;;;;;;;;5005894;28;20367;-63
2022/10/17 12:52:07;;;;;;;13.35;9.57;;;;;;;;;;5006744;28;20220;-63
2022/10/17 12:54:37;;;;;;;11.05;7.97;;;;;;;;;;5006375;28;20240;-63
2022/10/17 12:57:02;;;;;;;13.32;9.05;;;;;;;;;;5004306;28;20217;-63
2022/10/17 12:59:28;;;;;;;12.60;8.05;;;;;;;;;;5005004;28;20262;-63
2022/10/17 13:01:54;;;;;;;12.05;8.32;;;;;;;;;;4997938;28;20240;-63
2022/10/17 13:04:19;;;;;;;14.05;7.53;;;;;;;;;;5003795;28;20302;-63
2022/10/17 13:06:47;;;;;;;10.60;8.35;;;;;;;;;;5006844;28;20687;-62
2022/10/17 13:09:28;;;;;;;19.13;12.65;;;;;;;;;;5006409;28;20209;-63
2022/10/17 13:11:54;;;;;;;13.65;8.73;;;;;;;;;;5005085;28;20204;-63
2022/10/17 13:14:19;;;;;;;12.35;8.38;;;;;;;;;;5006027;28;20237;-63
2022/10/17 13:16:51;;;;;;;12.20;9.18;;;;;;;;;;5005552;28;20502;-63
2022/10/17 13:19:17;;;;;;;12.18;9.15;;;;;;;;;;5006135;28;20240;-63
2022/10/17 13:21:50;;;;;;;12.07;9.10;;;;;;;;;;5006098;28;20668;-63
2022/10/17 13:24:20;;;;;;;14.75;12.15;;;;;;;;;;5005991;28;20204;-63
2022/10/17 13:26:46;;;;;;;13.45;7.82;;;;;;;;;;5007474;28;20212;-63
2022/10/17 13:29:12;;;;;;;18.10;12.30;;;;;;;;;;5007033;28;20220;-63
2022/10/17 13:31:38;;;;;;;11.20;7.90;;;;;;;;;;5006667;28;20622;-63
2022/10/17 13:34:04;;;;;;;12.25;8.68;;;;;;;;;;5006704;28;20224;-63
2022/10/17 13:36:30;;;;;;;12.10;7.57;;;;;;;;;;5009882;28;20262;-63
2022/10/17 13:38:57;;;;;;;10.93;7.18;;;;;;;;;;5008617;28;20658;-63
2022/10/17 13:41:24;;;;;;;11.88;9.38;;;;;;;;;;5010475;28;20209;-63
2022/10/17 13:43:49;;;;;;;13.52;9.77;;;;;;;;;;5010815;28;20702;-63
2022/10/17 13:46:17;;;;;;;9.82;6.97;;;;;;;;;;5009908;28;20203;-63
2022/10/17 13:48:42;;;;;;;10.82;7.88;;;;;;;;;;5009368;28;20212;-63
2022/10/17 13:51:08;;;;;;;12.68;7.57;;;;;;;;;;5010116;28;20706;-64
2022/10/17 13:53:34;;;;;;;14.48;10.27;;;;;;;;;;5009957;28;20216;-63
2022/10/17 13:56:00;;;;;;;12.18;8.02;;;;;;;;;;5009548;28;20243;-63
2022/10/17 13:58:28;;;;;;;13.15;9.18;;;;;;;;;;5009763;28;20695;-63
2022/10/17 14:00:54;;;;;;;11.43;8.32;;;;;;;;;;5010489;28;20224;-63
2022/10/17 14:03:19;;;;;;;12.75;7.63;;;;;;;;;;5010020;28;20229;-63
2022/10/17 14:06:00;;;;;;;9.45;7.00;;;;;;;;;;5008708;28;20263;-63
2022/10/17 14:08:25;;;;;;;13.10;8.88;;;;;;;;;;5008616;28;20240;-63
2022/10/17 14:10:50;;;;;;;12.85;8.18;;;;;;;;;;5009074;28;20247;-63
2022/10/17 14:13:22;;;;;;;10.23;7.53;;;;;;;;;;5008142;28;20212;-63
2022/10/17 14:15:48;;;;;;;10.63;7.80;;;;;;;;;;5008987;28;20283;-63
2022/10/17 14:18:15;;;;;;;12.73;7.78;;;;;;;;;;5009974;28;20228;-63
2022/10/17 14:20:41;;;;;;;11.75;7.68;;;;;;;;;;5009676;28;20212;-63
2022/10/17 14:23:24;;;;;;;10.75;7.88;;;;;;;;;;5008370;28;20242;-63
2022/10/17 14:26:02;;;;;;;11.27;8.45;;;;;;;;;;5008872;28;20247;-63
2022/10/17 14:28:27;;;;;;;10.82;7.82;;;;;;;;;;5009208;28;20204;-63
2022/10/17 14:30:53;;;;;;;10.02;7.78;;;;;;;;;;5008233;28;20274;-63
2022/10/17 14:33:24;;;;;;;12.23;8.88;;;;;;;;;;5009914;28;20248;-63